Terminal Aerodrome Forecast
Issued by NWS

Home | Current Version | Previous Version | Text Only | Print | Product List | Glossary On
Versions: 1 2 3 4 5 6 7 8 9 10 11 12 13 14 15 16 17 18 19 20 21 22 23 24 25 26 27 28 29 30 31 32 33 34 35 36 37 38 39 40 41 42 43 44 45 46
000
FTUS41 KBOX 291120
TAFFMH
TAF
KFMH 291120Z 2912/3012 36011KT P6SM BKN040
     FM291400 36011KT P6SM SCT250
     FM292000 30007KT P6SM SKC
     FM292300 22004KT P6SM SKC
     FM300800 21008KT P6SM SCT200
     FM301100 20011KT P6SM BKN110=

USA.gov is the U.S. government's official web portal to all federal, state and local government web resources and services.